sensor_id;sensor_type;location;lat;lon;timestamp;P1;durP1;ratioP1;P2;durP2;ratioP2
3901;SDS011;1966;49.908;9.156;2022-10-31T00:01:33;9.07;;;6.70;;
3901;SDS011;1966;49.908;9.156;2022-10-31T00:06:34;11.40;;;6.00;;
3901;SDS011;1966;49.908;9.156;2022-10-31T00:11:34;9.77;;;6.37;;
3901;SDS011;1966;49.908;9.156;2022-10-31T00:16:33;11.80;;;7.20;;
3901;SDS011;1966;49.908;9.156;2022-10-31T00:21:32;11.67;;;6.00;;
3901;SDS011;1966;49.908;9.156;2022-10-31T00:26:33;8.87;;;6.07;;
3901;SDS011;1966;49.908;9.156;2022-10-31T00:31:32;7.70;;;5.57;;
3901;SDS011;1966;49.908;9.156;2022-10-31T00:36:32;6.97;;;5.70;;
3901;SDS011;1966;49.908;9.156;2022-10-31T00:41:31;10.47;;;5.47;;
3901;SDS011;1966;49.908;9.156;2022-10-31T00:46:32;9.80;;;5.70;;
3901;SDS011;1966;49.908;9.156;2022-10-31T00:51:31;7.53;;;5.67;;
3901;SDS011;1966;49.908;9.156;2022-10-31T00:56:30;9.10;;;5.97;;
3901;SDS011;1966;49.908;9.156;2022-10-31T01:01:29;12.83;;;6.13;;
3901;SDS011;1966;49.908;9.156;2022-10-31T01:06:30;8.33;;;6.10;;
3901;SDS011;1966;49.908;9.156;2022-10-31T01:11:29;6.90;;;5.33;;
3901;SDS011;1966;49.908;9.156;2022-10-31T01:16:29;13.67;;;6.90;;
3901;SDS011;1966;49.908;9.156;2022-10-31T01:21:28;7.03;;;5.50;;
3901;SDS011;1966;49.908;9.156;2022-10-31T01:26:30;13.27;;;5.17;;
3901;SDS011;1966;49.908;9.156;2022-10-31T01:31:30;7.43;;;4.77;;
3901;SDS011;1966;49.908;9.156;2022-10-31T01:36:31;10.80;;;5.00;;
3901;SDS011;1966;49.908;9.156;2022-10-31T01:41:33;10.37;;;5.20;;
3901;SDS011;1966;49.908;9.156;2022-10-31T01:46:34;7.53;;;4.97;;
3901;SDS011;1966;49.908;9.156;2022-10-31T01:51:36;10.67;;;4.83;;
3901;SDS011;1966;49.908;9.156;2022-10-31T01:56:38;8.40;;;4.80;;
3901;SDS011;1966;49.908;9.156;2022-10-31T02:01:39;6.47;;;4.67;;
3901;SDS011;1966;49.908;9.156;2022-10-31T02:06:38;9.00;;;5.07;;
3901;SDS011;1966;49.908;9.156;2022-10-31T02:11:41;7.03;;;4.40;;
3901;SDS011;1966;49.908;9.156;2022-10-31T02:16:41;7.13;;;4.90;;
3901;SDS011;1966;49.908;9.156;2022-10-31T02:21:41;15.53;;;5.10;;
3901;SDS011;1966;49.908;9.156;2022-10-31T02:26:48;10.20;;;6.43;;
3901;SDS011;1966;49.908;9.156;2022-10-31T02:31:51;6.30;;;4.90;;
3901;SDS011;1966;49.908;9.156;2022-10-31T02:36:53;10.67;;;5.83;;
3901;SDS011;1966;49.908;9.156;2022-10-31T02:41:59;8.63;;;5.00;;
3901;SDS011;1966;49.908;9.156;2022-10-31T02:47:01;5.87;;;4.97;;
3901;SDS011;1966;49.908;9.156;2022-10-31T02:52:02;9.60;;;5.20;;
3901;SDS011;1966;49.908;9.156;2022-10-31T02:57:11;6.17;;;4.47;;
3901;SDS011;1966;49.908;9.156;2022-10-31T03:02:17;7.23;;;4.67;;
3901;SDS011;1966;49.908;9.156;2022-10-31T03:07:20;6.30;;;5.03;;
3901;SDS011;1966;49.908;9.156;2022-10-31T03:12:22;8.70;;;4.90;;
3901;SDS011;1966;49.908;9.156;2022-10-31T03:17:26;6.80;;;4.90;;
3901;SDS011;1966;49.908;9.156;2022-10-31T03:22:27;8.63;;;5.10;;
3901;SDS011;1966;49.908;9.156;2022-10-31T03:27:30;13.57;;;4.73;;
3901;SDS011;1966;49.908;9.156;2022-10-31T03:32:32;11.17;;;6.07;;
3901;SDS011;1966;49.908;9.156;2022-10-31T03:37:33;5.70;;;5.07;;
3901;SDS011;1966;49.908;9.156;2022-10-31T03:42:34;7.67;;;5.87;;
3901;SDS011;1966;49.908;9.156;2022-10-31T03:47:37;12.13;;;5.13;;
3901;SDS011;1966;49.908;9.156;2022-10-31T03:52:37;6.70;;;4.60;;
3901;SDS011;1966;49.908;9.156;2022-10-31T03:57:39;7.80;;;5.33;;
3901;SDS011;1966;49.908;9.156;2022-10-31T04:02:42;9.63;;;5.70;;
3901;SDS011;1966;49.908;9.156;2022-10-31T04:07:44;7.10;;;5.20;;
3901;SDS011;1966;49.908;9.156;2022-10-31T04:12:47;7.60;;;5.03;;
3901;SDS011;1966;49.908;9.156;2022-10-31T04:17:49;10.80;;;5.70;;
3901;SDS011;1966;49.908;9.156;2022-10-31T04:22:49;7.37;;;4.67;;
3901;SDS011;1966;49.908;9.156;2022-10-31T04:27:48;10.10;;;4.80;;
3901;SDS011;1966;49.908;9.156;2022-10-31T04:32:49;8.23;;;4.83;;
3901;SDS011;1966;49.908;9.156;2022-10-31T04:37:48;7.17;;;5.13;;
3901;SDS011;1966;49.908;9.156;2022-10-31T04:42:48;10.97;;;6.00;;
3901;SDS011;1966;49.908;9.156;2022-10-31T04:47:47;9.33;;;6.00;;
3901;SDS011;1966;49.908;9.156;2022-10-31T04:52:47;10.27;;;5.90;;
3901;SDS011;1966;49.908;9.156;2022-10-31T04:57:47;10.20;;;6.43;;
3901;SDS011;1966;49.908;9.156;2022-10-31T05:02:47;15.07;;;5.40;;
3901;SDS011;1966;49.908;9.156;2022-10-31T05:07:48;7.20;;;5.80;;
3901;SDS011;1966;49.908;9.156;2022-10-31T05:12:48;8.70;;;5.37;;
3901;SDS011;1966;49.908;9.156;2022-10-31T05:17:48;8.60;;;6.03;;
3901;SDS011;1966;49.908;9.156;2022-10-31T05:22:49;8.70;;;5.90;;
3901;SDS011;1966;49.908;9.156;2022-10-31T05:27:50;6.90;;;6.20;;
3901;SDS011;1966;49.908;9.156;2022-10-31T05:32:49;6.83;;;5.50;;
3901;SDS011;1966;49.908;9.156;2022-10-31T05:37:50;12.13;;;6.27;;
3901;SDS011;1966;49.908;9.156;2022-10-31T05:42:50;7.50;;;5.87;;
3901;SDS011;1966;49.908;9.156;2022-10-31T05:47:50;9.87;;;6.37;;
3901;SDS011;1966;49.908;9.156;2022-10-31T05:52:55;15.03;;;6.47;;
3901;SDS011;1966;49.908;9.156;2022-10-31T05:57:54;9.30;;;5.83;;
3901;SDS011;1966;49.908;9.156;2022-10-31T06:02:57;7.70;;;5.60;;
3901;SDS011;1966;49.908;9.156;2022-10-31T06:07:58;10.27;;;5.90;;
3901;SDS011;1966;49.908;9.156;2022-10-31T06:12:57;8.60;;;5.60;;
3901;SDS011;1966;49.908;9.156;2022-10-31T06:17:57;8.37;;;5.43;;
3901;SDS011;1966;49.908;9.156;2022-10-31T06:22:58;7.40;;;5.43;;
3901;SDS011;1966;49.908;9.156;2022-10-31T06:27:57;11.60;;;5.30;;
3901;SDS011;1966;49.908;9.156;2022-10-31T06:33:01;8.80;;;5.70;;
3901;SDS011;1966;49.908;9.156;2022-10-31T06:38:01;10.20;;;6.37;;
3901;SDS011;1966;49.908;9.156;2022-10-31T06:43:01;9.40;;;6.03;;
3901;SDS011;1966;49.908;9.156;2022-10-31T06:48:00;8.40;;;5.50;;
3901;SDS011;1966;49.908;9.156;2022-10-31T06:53:00;9.33;;;6.23;;
3901;SDS011;1966;49.908;9.156;2022-10-31T06:58:00;9.17;;;6.10;;
3901;SDS011;1966;49.908;9.156;2022-10-31T07:03:00;10.33;;;5.77;;
3901;SDS011;1966;49.908;9.156;2022-10-31T07:08:01;8.87;;;5.40;;
3901;SDS011;1966;49.908;9.156;2022-10-31T07:13:02;7.27;;;5.93;;
3901;SDS011;1966;49.908;9.156;2022-10-31T07:18:02;7.47;;;5.57;;
3901;SDS011;1966;49.908;9.156;2022-10-31T07:23:02;5.97;;;5.37;;
3901;SDS011;1966;49.908;9.156;2022-10-31T07:28:02;7.40;;;5.67;;
3901;SDS011;1966;49.908;9.156;2022-10-31T07:33:02;9.07;;;6.27;;
3901;SDS011;1966;49.908;9.156;2022-10-31T07:38:08;8.23;;;6.00;;
3901;SDS011;1966;49.908;9.156;2022-10-31T07:43:09;9.50;;;6.40;;
3901;SDS011;1966;49.908;9.156;2022-10-31T07:48:09;10.07;;;6.53;;
3901;SDS011;1966;49.908;9.156;2022-10-31T07:53:09;11.00;;;7.23;;
3901;SDS011;1966;49.908;9.156;2022-10-31T07:58:10;10.43;;;7.30;;
3901;SDS011;1966;49.908;9.156;2022-10-31T08:03:10;16.17;;;7.50;;
3901;SDS011;1966;49.908;9.156;2022-10-31T08:08:10;12.57;;;9.90;;
3901;SDS011;1966;49.908;9.156;2022-10-31T08:13:12;10.13;;;6.40;;
3901;SDS011;1966;49.908;9.156;2022-10-31T08:18:12;10.23;;;6.90;;
3901;SDS011;1966;49.908;9.156;2022-10-31T08:23:12;9.50;;;6.43;;
3901;SDS011;1966;49.908;9.156;2022-10-31T08:28:13;8.70;;;5.33;;
3901;SDS011;1966;49.908;9.156;2022-10-31T08:33:13;10.40;;;5.27;;
3901;SDS011;1966;49.908;9.156;2022-10-31T08:38:13;11.17;;;5.00;;
3901;SDS011;1966;49.908;9.156;2022-10-31T08:43:14;8.20;;;4.67;;
3901;SDS011;1966;49.908;9.156;2022-10-31T08:48:14;10.70;;;4.83;;
3901;SDS011;1966;49.908;9.156;2022-10-31T08:53:14;5.17;;;4.10;;
3901;SDS011;1966;49.908;9.156;2022-10-31T08:58:16;10.47;;;4.87;;
3901;SDS011;1966;49.908;9.156;2022-10-31T09:03:16;6.70;;;4.87;;
3901;SDS011;1966;49.908;9.156;2022-10-31T09:08:16;7.20;;;4.67;;
3901;SDS011;1966;49.908;9.156;2022-10-31T09:13:17;6.90;;;4.63;;
3901;SDS011;1966;49.908;9.156;2022-10-31T09:18:17;6.33;;;4.80;;
3901;SDS011;1966;49.908;9.156;2022-10-31T09:23:17;5.40;;;4.20;;
3901;SDS011;1966;49.908;9.156;2022-10-31T09:28:18;5.90;;;4.57;;
3901;SDS011;1966;49.908;9.156;2022-10-31T09:33:18;10.90;;;5.37;;
3901;SDS011;1966;49.908;9.156;2022-10-31T09:38:17;9.50;;;4.40;;
3901;SDS011;1966;49.908;9.156;2022-10-31T09:43:22;8.00;;;4.20;;
3901;SDS011;1966;49.908;9.156;2022-10-31T09:48:29;11.37;;;5.00;;
3901;SDS011;1966;49.908;9.156;2022-10-31T09:53:32;8.93;;;5.20;;
3901;SDS011;1966;49.908;9.156;2022-10-31T09:58:37;10.80;;;4.60;;
3901;SDS011;1966;49.908;9.156;2022-10-31T10:03:38;6.77;;;4.77;;
3901;SDS011;1966;49.908;9.156;2022-10-31T10:08:38;7.57;;;4.80;;
3901;SDS011;1966;49.908;9.156;2022-10-31T10:13:45;7.10;;;4.87;;
3901;SDS011;1966;49.908;9.156;2022-10-31T10:18:50;7.70;;;5.07;;
3901;SDS011;1966;49.908;9.156;2022-10-31T10:23:54;11.30;;;5.40;;
3901;SDS011;1966;49.908;9.156;2022-10-31T10:28:57;7.80;;;5.50;;
3901;SDS011;1966;49.908;9.156;2022-10-31T10:33:59;7.33;;;4.53;;
3901;SDS011;1966;49.908;9.156;2022-10-31T10:39:00;7.40;;;5.20;;
3901;SDS011;1966;49.908;9.156;2022-10-31T10:44:04;7.00;;;5.10;;
3901;SDS011;1966;49.908;9.156;2022-10-31T10:49:07;12.10;;;5.30;;
3901;SDS011;1966;49.908;9.156;2022-10-31T10:54:12;10.30;;;5.90;;
3901;SDS011;1966;49.908;9.156;2022-10-31T10:59:15;8.47;;;5.30;;
3901;SDS011;1966;49.908;9.156;2022-10-31T11:04:22;12.10;;;5.50;;
3901;SDS011;1966;49.908;9.156;2022-10-31T11:09:22;7.10;;;5.60;;
3901;SDS011;1966;49.908;9.156;2022-10-31T11:14:23;13.13;;;6.20;;
3901;SDS011;1966;49.908;9.156;2022-10-31T11:19:23;6.57;;;5.27;;
3901;SDS011;1966;49.908;9.156;2022-10-31T11:24:23;7.40;;;5.40;;
3901;SDS011;1966;49.908;9.156;2022-10-31T11:29:25;13.87;;;5.77;;
3901;SDS011;1966;49.908;9.156;2022-10-31T11:34:29;9.50;;;5.77;;
3901;SDS011;1966;49.908;9.156;2022-10-31T11:39:29;7.30;;;5.27;;
3901;SDS011;1966;49.908;9.156;2022-10-31T11:44:30;8.27;;;5.47;;
3901;SDS011;1966;49.908;9.156;2022-10-31T11:49:31;8.33;;;5.03;;
3901;SDS011;1966;49.908;9.156;2022-10-31T11:54:32;13.70;;;5.17;;
3901;SDS011;1966;49.908;9.156;2022-10-31T11:59:33;8.40;;;5.33;;
3901;SDS011;1966;49.908;9.156;2022-10-31T12:04:35;9.50;;;5.70;;
3901;SDS011;1966;49.908;9.156;2022-10-31T12:09:36;10.70;;;6.60;;
3901;SDS011;1966;49.908;9.156;2022-10-31T12:14:40;10.70;;;6.23;;
3901;SDS011;1966;49.908;9.156;2022-10-31T12:19:43;10.50;;;6.20;;
3901;SDS011;1966;49.908;9.156;2022-10-31T12:24:50;13.90;;;5.60;;
3901;SDS011;1966;49.908;9.156;2022-10-31T12:30:02;11.60;;;6.07;;
3901;SDS011;1966;49.908;9.156;2022-10-31T12:35:09;8.00;;;5.80;;
3901;SDS011;1966;49.908;9.156;2022-10-31T12:40:21;8.33;;;5.67;;
3901;SDS011;1966;49.908;9.156;2022-10-31T12:45:30;8.20;;;5.97;;
3901;SDS011;1966;49.908;9.156;2022-10-31T12:50:36;13.83;;;6.30;;
3901;SDS011;1966;49.908;9.156;2022-10-31T12:55:42;6.70;;;5.30;;
3901;SDS011;1966;49.908;9.156;2022-10-31T13:00:46;10.20;;;5.60;;
3901;SDS011;1966;49.908;9.156;2022-10-31T13:05:48;9.40;;;5.70;;
3901;SDS011;1966;49.908;9.156;2022-10-31T13:10:50;8.97;;;6.00;;
3901;SDS011;1966;49.908;9.156;2022-10-31T13:15:53;6.83;;;5.30;;
3901;SDS011;1966;49.908;9.156;2022-10-31T13:20:54;8.60;;;5.57;;
3901;SDS011;1966;49.908;9.156;2022-10-31T13:25:55;10.10;;;6.10;;
3901;SDS011;1966;49.908;9.156;2022-10-31T13:30:56;12.47;;;5.67;;
3901;SDS011;1966;49.908;9.156;2022-10-31T13:35:57;12.20;;;6.47;;
3901;SDS011;1966;49.908;9.156;2022-10-31T13:41:00;9.60;;;5.97;;
3901;SDS011;1966;49.908;9.156;2022-10-31T13:46:02;7.00;;;5.60;;
3901;SDS011;1966;49.908;9.156;2022-10-31T13:51:02;8.60;;;5.47;;
3901;SDS011;1966;49.908;9.156;2022-10-31T13:56:03;12.23;;;7.03;;
3901;SDS011;1966;49.908;9.156;2022-10-31T14:01:11;8.37;;;5.67;;
3901;SDS011;1966;49.908;9.156;2022-10-31T14:06:11;11.83;;;6.93;;
3901;SDS011;1966;49.908;9.156;2022-10-31T14:11:16;8.83;;;6.60;;
3901;SDS011;1966;49.908;9.156;2022-10-31T14:16:21;14.27;;;7.07;;
3901;SDS011;1966;49.908;9.156;2022-10-31T14:21:26;8.33;;;6.10;;
3901;SDS011;1966;49.908;9.156;2022-10-31T14:26:33;11.83;;;7.10;;
3901;SDS011;1966;49.908;9.156;2022-10-31T14:31:35;11.10;;;7.00;;
3901;SDS011;1966;49.908;9.156;2022-10-31T14:36:37;9.40;;;6.47;;
3901;SDS011;1966;49.908;9.156;2022-10-31T14:41:43;10.97;;;7.83;;
3901;SDS011;1966;49.908;9.156;2022-10-31T14:46:47;11.23;;;7.53;;
3901;SDS011;1966;49.908;9.156;2022-10-31T14:51:50;12.00;;;8.33;;
3901;SDS011;1966;49.908;9.156;2022-10-31T14:56:50;14.03;;;7.60;;
3901;SDS011;1966;49.908;9.156;2022-10-31T15:01:55;13.37;;;7.90;;
3901;SDS011;1966;49.908;9.156;2022-10-31T15:06:57;12.80;;;7.83;;
3901;SDS011;1966;49.908;9.156;2022-10-31T15:11:58;13.00;;;7.03;;
3901;SDS011;1966;49.908;9.156;2022-10-31T15:17:01;11.27;;;8.40;;
3901;SDS011;1966;49.908;9.156;2022-10-31T15:22:01;13.07;;;8.17;;
3901;SDS011;1966;49.908;9.156;2022-10-31T15:27:00;16.53;;;7.97;;
3901;SDS011;1966;49.908;9.156;2022-10-31T15:32:17;16.97;;;9.53;;
3901;SDS011;1966;49.908;9.156;2022-10-31T15:37:17;12.67;;;9.83;;
3901;SDS011;1966;49.908;9.156;2022-10-31T15:42:18;15.87;;;11.17;;
3901;SDS011;1966;49.908;9.156;2022-10-31T15:47:20;25.87;;;13.53;;
3901;SDS011;1966;49.908;9.156;2022-10-31T15:52:23;13.00;;;10.30;;
3901;SDS011;1966;49.908;9.156;2022-10-31T15:57:24;20.67;;;11.40;;
3901;SDS011;1966;49.908;9.156;2022-10-31T16:02:26;12.93;;;10.67;;
3901;SDS011;1966;49.908;9.156;2022-10-31T16:07:26;19.13;;;12.87;;
3901;SDS011;1966;49.908;9.156;2022-10-31T16:12:28;18.87;;;10.47;;
3901;SDS011;1966;49.908;9.156;2022-10-31T16:17:30;15.60;;;10.60;;
3901;SDS011;1966;49.908;9.156;2022-10-31T16:22:31;16.17;;;12.03;;
3901;SDS011;1966;49.908;9.156;2022-10-31T16:27:31;36.00;;;23.50;;
3901;SDS011;1966;49.908;9.156;2022-10-31T16:32:33;18.63;;;11.67;;
3901;SDS011;1966;49.908;9.156;2022-10-31T16:37:32;13.67;;;10.40;;
3901;SDS011;1966;49.908;9.156;2022-10-31T16:42:32;14.70;;;11.37;;
3901;SDS011;1966;49.908;9.156;2022-10-31T16:47:32;21.40;;;12.80;;
3901;SDS011;1966;49.908;9.156;2022-10-31T16:52:32;16.53;;;12.13;;
3901;SDS011;1966;49.908;9.156;2022-10-31T16:57:31;15.00;;;11.93;;
3901;SDS011;1966;49.908;9.156;2022-10-31T17:02:30;16.17;;;9.40;;
3901;SDS011;1966;49.908;9.156;2022-10-31T17:07:31;41.13;;;18.97;;
3901;SDS011;1966;49.908;9.156;2022-10-31T17:12:30;19.03;;;13.80;;
3901;SDS011;1966;49.908;9.156;2022-10-31T17:17:29;19.33;;;12.73;;
3901;SDS011;1966;49.908;9.156;2022-10-31T17:22:30;20.67;;;14.50;;
3901;SDS011;1966;49.908;9.156;2022-10-31T17:27:29;23.13;;;15.87;;
3901;SDS011;1966;49.908;9.156;2022-10-31T17:32:29;24.27;;;16.07;;
3901;SDS011;1966;49.908;9.156;2022-10-31T17:37:28;18.60;;;13.60;;
3901;SDS011;1966;49.908;9.156;2022-10-31T17:42:29;24.37;;;14.17;;
3901;SDS011;1966;49.908;9.156;2022-10-31T17:47:28;25.10;;;14.93;;
3901;SDS011;1966;49.908;9.156;2022-10-31T17:52:27;23.97;;;15.10;;
3901;SDS011;1966;49.908;9.156;2022-10-31T17:57:28;27.83;;;15.73;;
3901;SDS011;1966;49.908;9.156;2022-10-31T18:02:31;24.00;;;16.17;;
3901;SDS011;1966;49.908;9.156;2022-10-31T18:07:31;25.43;;;16.90;;
3901;SDS011;1966;49.908;9.156;2022-10-31T18:12:31;26.70;;;18.40;;
3901;SDS011;1966;49.908;9.156;2022-10-31T18:17:31;24.03;;;16.93;;
3901;SDS011;1966;49.908;9.156;2022-10-31T18:22:31;24.90;;;18.00;;
3901;SDS011;1966;49.908;9.156;2022-10-31T18:27:30;27.77;;;17.50;;
3901;SDS011;1966;49.908;9.156;2022-10-31T18:32:29;28.83;;;19.43;;
3901;SDS011;1966;49.908;9.156;2022-10-31T18:37:30;22.10;;;16.30;;
3901;SDS011;1966;49.908;9.156;2022-10-31T18:42:29;26.17;;;17.23;;
3901;SDS011;1966;49.908;9.156;2022-10-31T18:47:28;26.83;;;17.23;;
3901;SDS011;1966;49.908;9.156;2022-10-31T18:52:30;25.17;;;17.57;;
3901;SDS011;1966;49.908;9.156;2022-10-31T18:57:29;23.07;;;16.60;;
3901;SDS011;1966;49.908;9.156;2022-10-31T19:02:28;25.70;;;17.03;;
3901;SDS011;1966;49.908;9.156;2022-10-31T19:07:29;30.87;;;19.07;;
3901;SDS011;1966;49.908;9.156;2022-10-31T19:12:29;25.37;;;17.73;;
3901;SDS011;1966;49.908;9.156;2022-10-31T19:17:29;28.90;;;17.47;;
3901;SDS011;1966;49.908;9.156;2022-10-31T19:22:30;31.13;;;18.40;;
3901;SDS011;1966;49.908;9.156;2022-10-31T19:27:29;27.20;;;17.07;;
3901;SDS011;1966;49.908;9.156;2022-10-31T19:32:29;25.23;;;18.47;;
3901;SDS011;1966;49.908;9.156;2022-10-31T19:37:28;26.47;;;17.43;;
3901;SDS011;1966;49.908;9.156;2022-10-31T19:42:29;30.87;;;19.20;;
3901;SDS011;1966;49.908;9.156;2022-10-31T19:47:28;29.60;;;19.20;;
3901;SDS011;1966;49.908;9.156;2022-10-31T19:52:27;26.17;;;19.70;;
3901;SDS011;1966;49.908;9.156;2022-10-31T19:57:28;25.83;;;19.47;;
3901;SDS011;1966;49.908;9.156;2022-10-31T20:02:30;24.80;;;16.60;;
3901;SDS011;1966;49.908;9.156;2022-10-31T20:07:30;28.20;;;18.77;;
3901;SDS011;1966;49.908;9.156;2022-10-31T20:12:32;25.93;;;19.13;;
3901;SDS011;1966;49.908;9.156;2022-10-31T20:17:31;34.97;;;24.70;;
3901;SDS011;1966;49.908;9.156;2022-10-31T20:22:31;29.90;;;22.30;;
3901;SDS011;1966;49.908;9.156;2022-10-31T20:27:30;27.37;;;20.10;;
3901;SDS011;1966;49.908;9.156;2022-10-31T20:32:31;28.50;;;20.93;;
3901;SDS011;1966;49.908;9.156;2022-10-31T20:37:30;29.23;;;18.83;;
3901;SDS011;1966;49.908;9.156;2022-10-31T20:42:29;25.20;;;17.50;;
3901;SDS011;1966;49.908;9.156;2022-10-31T20:47:29;26.83;;;19.00;;
3901;SDS011;1966;49.908;9.156;2022-10-31T20:52:29;29.83;;;20.20;;
3901;SDS011;1966;49.908;9.156;2022-10-31T20:57:28;26.47;;;18.57;;
3901;SDS011;1966;49.908;9.156;2022-10-31T21:02:28;27.90;;;19.20;;
3901;SDS011;1966;49.908;9.156;2022-10-31T21:07:30;29.03;;;18.83;;
3901;SDS011;1966;49.908;9.156;2022-10-31T21:12:29;28.47;;;20.97;;
3901;SDS011;1966;49.908;9.156;2022-10-31T21:17:28;27.87;;;17.77;;
3901;SDS011;1966;49.908;9.156;2022-10-31T21:22:29;24.97;;;17.77;;
3901;SDS011;1966;49.908;9.156;2022-10-31T21:27:28;31.13;;;19.60;;
3901;SDS011;1966;49.908;9.156;2022-10-31T21:32:28;32.70;;;19.30;;
3901;SDS011;1966;49.908;9.156;2022-10-31T21:37:28;28.17;;;17.50;;
3901;SDS011;1966;49.908;9.156;2022-10-31T21:42:28;21.77;;;13.43;;
3901;SDS011;1966;49.908;9.156;2022-10-31T21:47:27;21.57;;;14.30;;
3901;SDS011;1966;49.908;9.156;2022-10-31T21:52:26;20.97;;;14.30;;
3901;SDS011;1966;49.908;9.156;2022-10-31T21:57:27;24.20;;;14.13;;
3901;SDS011;1966;49.908;9.156;2022-10-31T22:02:26;21.23;;;14.70;;
3901;SDS011;1966;49.908;9.156;2022-10-31T22:07:25;17.60;;;12.47;;
3901;SDS011;1966;49.908;9.156;2022-10-31T22:12:25;14.73;;;11.60;;
3901;SDS011;1966;49.908;9.156;2022-10-31T22:17:25;17.60;;;12.50;;
3901;SDS011;1966;49.908;9.156;2022-10-31T22:22:24;20.20;;;13.73;;
3901;SDS011;1966;49.908;9.156;2022-10-31T22:27:24;24.00;;;15.53;;
3901;SDS011;1966;49.908;9.156;2022-10-31T22:32:23;22.43;;;14.70;;
3901;SDS011;1966;49.908;9.156;2022-10-31T22:37:25;21.60;;;15.33;;
3901;SDS011;1966;49.908;9.156;2022-10-31T22:42:25;21.27;;;16.20;;
3901;SDS011;1966;49.908;9.156;2022-10-31T22:47:24;23.10;;;15.60;;
3901;SDS011;1966;49.908;9.156;2022-10-31T22:52:23;23.27;;;16.17;;
3901;SDS011;1966;49.908;9.156;2022-10-31T22:57:24;20.40;;;15.40;;
3901;SDS011;1966;49.908;9.156;2022-10-31T23:02:23;26.17;;;16.77;;
3901;SDS011;1966;49.908;9.156;2022-10-31T23:07:22;26.50;;;18.23;;
3901;SDS011;1966;49.908;9.156;2022-10-31T23:12:22;26.00;;;18.23;;
3901;SDS011;1966;49.908;9.156;2022-10-31T23:17:40;29.17;;;18.40;;
3901;SDS011;1966;49.908;9.156;2022-10-31T23:22:39;25.23;;;17.80;;
3901;SDS011;1966;49.908;9.156;2022-10-31T23:27:38;32.40;;;18.10;;
3901;SDS011;1966;49.908;9.156;2022-10-31T23:32:39;31.10;;;19.47;;
3901;SDS011;1966;49.908;9.156;2022-10-31T23:37:38;27.37;;;19.00;;
3901;SDS011;1966;49.908;9.156;2022-10-31T23:42:38;24.80;;;17.00;;
3901;SDS011;1966;49.908;9.156;2022-10-31T23:47:37;30.07;;;19.77;;
3901;SDS011;1966;49.908;9.156;2022-10-31T23:52:38;28.50;;;19.40;;
3901;SDS011;1966;49.908;9.156;2022-10-31T23:57:37;26.70;;;17.80;;
